sensor_id;sensor_type;location;lat;lon;timestamp;P1;durP1;ratioP1;P2;durP2;ratioP2
66751;SDS011;53663;42.676;23.238;2022-10-31T00:00:58;5.45;;;2.55;;
66751;SDS011;53663;42.676;23.238;2022-10-31T00:03:24;9.00;;;2.90;;
66751;SDS011;53663;42.676;23.238;2022-10-31T00:05:51;5.05;;;2.72;;
66751;SDS011;53663;42.676;23.238;2022-10-31T00:08:17;7.32;;;2.72;;
66751;SDS011;53663;42.676;23.238;2022-10-31T00:10:44;7.68;;;2.47;;
66751;SDS011;53663;42.676;23.238;2022-10-31T00:13:10;11.02;;;3.00;;
66751;SDS011;53663;42.676;23.238;2022-10-31T00:15:38;7.28;;;2.90;;
66751;SDS011;53663;42.676;23.238;2022-10-31T00:18:06;4.88;;;2.45;;
66751;SDS011;53663;42.676;23.238;2022-10-31T00:20:32;5.63;;;2.78;;
66751;SDS011;53663;42.676;23.238;2022-10-31T00:22:58;5.72;;;2.67;;
66751;SDS011;53663;42.676;23.238;2022-10-31T00:25:24;5.30;;;2.90;;
66751;SDS011;53663;42.676;23.238;2022-10-31T00:27:51;9.88;;;3.08;;
66751;SDS011;53663;42.676;23.238;2022-10-31T00:30:16;7.80;;;3.30;;
66751;SDS011;53663;42.676;23.238;2022-10-31T00:32:42;6.55;;;3.00;;
66751;SDS011;53663;42.676;23.238;2022-10-31T00:35:08;7.18;;;3.22;;
66751;SDS011;53663;42.676;23.238;2022-10-31T00:37:33;7.13;;;3.05;;
66751;SDS011;53663;42.676;23.238;2022-10-31T00:39:59;11.95;;;2.90;;
66751;SDS011;53663;42.676;23.238;2022-10-31T00:42:24;5.93;;;2.90;;
66751;SDS011;53663;42.676;23.238;2022-10-31T00:44:50;7.32;;;2.60;;
66751;SDS011;53663;42.676;23.238;2022-10-31T00:47:15;9.48;;;3.30;;
66751;SDS011;53663;42.676;23.238;2022-10-31T00:49:41;8.00;;;3.20;;
66751;SDS011;53663;42.676;23.238;2022-10-31T00:52:06;5.95;;;3.10;;
66751;SDS011;53663;42.676;23.238;2022-10-31T00:54:32;11.07;;;3.88;;
66751;SDS011;53663;42.676;23.238;2022-10-31T00:56:57;7.28;;;2.90;;
66751;SDS011;53663;42.676;23.238;2022-10-31T00:59:23;13.68;;;3.75;;
66751;SDS011;53663;42.676;23.238;2022-10-31T01:01:49;8.82;;;3.00;;
66751;SDS011;53663;42.676;23.238;2022-10-31T01:04:15;8.55;;;2.65;;
66751;SDS011;53663;42.676;23.238;2022-10-31T01:06:40;7.20;;;3.30;;
66751;SDS011;53663;42.676;23.238;2022-10-31T01:09:06;10.15;;;3.13;;
66751;SDS011;53663;42.676;23.238;2022-10-31T01:11:32;6.93;;;2.85;;
66751;SDS011;53663;42.676;23.238;2022-10-31T01:13:57;8.90;;;3.00;;
66751;SDS011;53663;42.676;23.238;2022-10-31T01:16:23;5.20;;;2.78;;
66751;SDS011;53663;42.676;23.238;2022-10-31T01:18:50;13.32;;;2.97;;
66751;SDS011;53663;42.676;23.238;2022-10-31T01:21:19;9.45;;;2.88;;
66751;SDS011;53663;42.676;23.238;2022-10-31T01:23:47;9.77;;;3.00;;
66751;SDS011;53663;42.676;23.238;2022-10-31T01:26:15;7.60;;;3.28;;
66751;SDS011;53663;42.676;23.238;2022-10-31T01:28:48;11.60;;;3.63;;
66751;SDS011;53663;42.676;23.238;2022-10-31T01:31:14;7.45;;;2.97;;
66751;SDS011;53663;42.676;23.238;2022-10-31T01:33:41;7.20;;;3.25;;
66751;SDS011;53663;42.676;23.238;2022-10-31T01:36:15;6.20;;;3.22;;
66751;SDS011;53663;42.676;23.238;2022-10-31T01:38:43;8.05;;;3.45;;
66751;SDS011;53663;42.676;23.238;2022-10-31T01:41:09;6.25;;;2.80;;
66751;SDS011;53663;42.676;23.238;2022-10-31T01:43:48;8.63;;;2.90;;
66751;SDS011;53663;42.676;23.238;2022-10-31T01:46:22;6.07;;;3.10;;
66751;SDS011;53663;42.676;23.238;2022-10-31T01:48:52;5.57;;;3.20;;
66751;SDS011;53663;42.676;23.238;2022-10-31T01:51:21;6.97;;;3.38;;
66751;SDS011;53663;42.676;23.238;2022-10-31T01:53:51;11.77;;;3.35;;
66751;SDS011;53663;42.676;23.238;2022-10-31T01:56:23;6.80;;;3.20;;
66751;SDS011;53663;42.676;23.238;2022-10-31T01:58:49;8.77;;;3.33;;
66751;SDS011;53663;42.676;23.238;2022-10-31T02:01:16;14.20;;;3.25;;
66751;SDS011;53663;42.676;23.238;2022-10-31T02:03:43;5.72;;;3.28;;
66751;SDS011;53663;42.676;23.238;2022-10-31T02:06:14;8.38;;;3.40;;
66751;SDS011;53663;42.676;23.238;2022-10-31T02:08:49;6.32;;;3.13;;
66751;SDS011;53663;42.676;23.238;2022-10-31T02:11:16;7.10;;;3.13;;
66751;SDS011;53663;42.676;23.238;2022-10-31T02:13:41;5.55;;;3.05;;
66751;SDS011;53663;42.676;23.238;2022-10-31T02:16:08;8.43;;;2.53;;
66751;SDS011;53663;42.676;23.238;2022-10-31T02:18:34;6.00;;;3.30;;
66751;SDS011;53663;42.676;23.238;2022-10-31T02:48:50;9.05;;;3.83;;
66751;SDS011;53663;42.676;23.238;2022-10-31T02:51:19;14.15;;;3.67;;
66751;SDS011;53663;42.676;23.238;2022-10-31T02:53:46;7.50;;;4.20;;
66751;SDS011;53663;42.676;23.238;2022-10-31T02:56:18;10.45;;;4.40;;
66751;SDS011;53663;42.676;23.238;2022-10-31T02:58:46;6.45;;;3.53;;
66751;SDS011;53663;42.676;23.238;2022-10-31T03:01:41;9.23;;;4.00;;
66751;SDS011;53663;42.676;23.238;2022-10-31T03:12:25;8.82;;;3.83;;
66751;SDS011;53663;42.676;23.238;2022-10-31T03:15:18;7.85;;;3.92;;
66751;SDS011;53663;42.676;23.238;2022-10-31T03:20:40;12.95;;;3.85;;
66751;SDS011;53663;42.676;23.238;2022-10-31T03:23:11;11.50;;;3.90;;
66751;SDS011;53663;42.676;23.238;2022-10-31T03:25:39;7.25;;;3.72;;
66751;SDS011;53663;42.676;23.238;2022-10-31T03:28:07;6.85;;;4.07;;
66751;SDS011;53663;42.676;23.238;2022-10-31T03:30:35;10.82;;;4.05;;
66751;SDS011;53663;42.676;23.238;2022-10-31T03:33:04;10.48;;;4.13;;
66751;SDS011;53663;42.676;23.238;2022-10-31T03:35:37;7.60;;;3.50;;
66751;SDS011;53663;42.676;23.238;2022-10-31T03:38:07;10.40;;;4.20;;
66751;SDS011;53663;42.676;23.238;2022-10-31T03:40:34;19.85;;;4.43;;
66751;SDS011;53663;42.676;23.238;2022-10-31T03:43:03;12.73;;;4.40;;
66751;SDS011;53663;42.676;23.238;2022-10-31T03:45:35;12.32;;;3.80;;
66751;SDS011;53663;42.676;23.238;2022-10-31T03:50:35;9.02;;;3.78;;
66751;SDS011;53663;42.676;23.238;2022-10-31T03:53:13;8.27;;;3.88;;
66751;SDS011;53663;42.676;23.238;2022-10-31T03:55:43;11.05;;;4.53;;
66751;SDS011;53663;42.676;23.238;2022-10-31T03:58:28;9.13;;;4.05;;
66751;SDS011;53663;42.676;23.238;2022-10-31T04:00:59;11.55;;;4.28;;
66751;SDS011;53663;42.676;23.238;2022-10-31T04:03:28;8.00;;;4.10;;
66751;SDS011;53663;42.676;23.238;2022-10-31T04:05:59;8.48;;;4.00;;
66751;SDS011;53663;42.676;23.238;2022-10-31T04:08:30;8.95;;;3.90;;
66751;SDS011;53663;42.676;23.238;2022-10-31T04:10:59;8.07;;;4.13;;
66751;SDS011;53663;42.676;23.238;2022-10-31T04:13:27;8.82;;;3.97;;
66751;SDS011;53663;42.676;23.238;2022-10-31T04:16:05;10.73;;;4.53;;
66751;SDS011;53663;42.676;23.238;2022-10-31T04:18:32;9.77;;;4.05;;
66751;SDS011;53663;42.676;23.238;2022-10-31T04:21:04;11.70;;;5.10;;
66751;SDS011;53663;42.676;23.238;2022-10-31T04:23:33;10.48;;;4.00;;
66751;SDS011;53663;42.676;23.238;2022-10-31T04:26:06;12.57;;;4.05;;
66751;SDS011;53663;42.676;23.238;2022-10-31T04:28:33;9.50;;;4.00;;
66751;SDS011;53663;42.676;23.238;2022-10-31T04:30:58;12.48;;;4.50;;
66751;SDS011;53663;42.676;23.238;2022-10-31T04:33:24;10.73;;;4.15;;
66751;SDS011;53663;42.676;23.238;2022-10-31T04:35:50;10.85;;;4.78;;
66751;SDS011;53663;42.676;23.238;2022-10-31T04:38:17;11.38;;;3.88;;
66751;SDS011;53663;42.676;23.238;2022-10-31T04:40:42;9.00;;;4.63;;
66751;SDS011;53663;42.676;23.238;2022-10-31T04:43:35;11.63;;;4.50;;
66751;SDS011;53663;42.676;23.238;2022-10-31T04:46:01;17.75;;;4.97;;
66751;SDS011;53663;42.676;23.238;2022-10-31T04:48:27;10.13;;;4.80;;
66751;SDS011;53663;42.676;23.238;2022-10-31T04:50:52;15.48;;;4.78;;
66751;SDS011;53663;42.676;23.238;2022-10-31T04:53:23;9.70;;;4.65;;
66751;SDS011;53663;42.676;23.238;2022-10-31T04:56:20;9.48;;;4.60;;
66751;SDS011;53663;42.676;23.238;2022-10-31T04:58:49;14.75;;;4.95;;
66751;SDS011;53663;42.676;23.238;2022-10-31T05:01:15;11.70;;;4.38;;
66751;SDS011;53663;42.676;23.238;2022-10-31T05:03:41;10.68;;;5.38;;
66751;SDS011;53663;42.676;23.238;2022-10-31T05:06:07;13.90;;;4.55;;
66751;SDS011;53663;42.676;23.238;2022-10-31T05:08:33;28.58;;;6.40;;
66751;SDS011;53663;42.676;23.238;2022-10-31T05:11:02;11.40;;;5.63;;
66751;SDS011;53663;42.676;23.238;2022-10-31T05:13:28;12.13;;;5.95;;
66751;SDS011;53663;42.676;23.238;2022-10-31T05:16:13;10.68;;;5.28;;
66751;SDS011;53663;42.676;23.238;2022-10-31T05:18:56;11.80;;;5.68;;
66751;SDS011;53663;42.676;23.238;2022-10-31T05:21:40;24.85;;;6.22;;
66751;SDS011;53663;42.676;23.238;2022-10-31T05:24:07;20.00;;;5.70;;
66751;SDS011;53663;42.676;23.238;2022-10-31T05:26:34;16.80;;;5.57;;
66751;SDS011;53663;42.676;23.238;2022-10-31T05:28:59;10.45;;;6.43;;
66751;SDS011;53663;42.676;23.238;2022-10-31T05:31:25;13.48;;;6.05;;
66751;SDS011;53663;42.676;23.238;2022-10-31T05:33:52;15.52;;;5.88;;
66751;SDS011;53663;42.676;23.238;2022-10-31T05:36:32;26.17;;;6.30;;
66751;SDS011;53663;42.676;23.238;2022-10-31T05:39:01;14.23;;;6.00;;
66751;SDS011;53663;42.676;23.238;2022-10-31T05:41:35;15.18;;;6.47;;
66751;SDS011;53663;42.676;23.238;2022-10-31T05:44:08;21.25;;;6.75;;
66751;SDS011;53663;42.676;23.238;2022-10-31T05:46:47;22.38;;;6.75;;
66751;SDS011;53663;42.676;23.238;2022-10-31T05:49:18;23.50;;;7.43;;
66751;SDS011;53663;42.676;23.238;2022-10-31T05:52:07;12.25;;;6.63;;
66751;SDS011;53663;42.676;23.238;2022-10-31T05:54:39;22.08;;;6.82;;
66751;SDS011;53663;42.676;23.238;2022-10-31T05:57:04;14.77;;;6.55;;
66751;SDS011;53663;42.676;23.238;2022-10-31T05:59:30;17.80;;;6.40;;
66751;SDS011;53663;42.676;23.238;2022-10-31T06:01:57;15.25;;;7.30;;
66751;SDS011;53663;42.676;23.238;2022-10-31T06:04:35;16.85;;;6.68;;
66751;SDS011;53663;42.676;23.238;2022-10-31T06:07:01;13.13;;;7.18;;
66751;SDS011;53663;42.676;23.238;2022-10-31T06:09:27;11.13;;;6.88;;
66751;SDS011;53663;42.676;23.238;2022-10-31T06:11:54;17.67;;;7.22;;
66751;SDS011;53663;42.676;23.238;2022-10-31T06:14:25;11.70;;;7.22;;
66751;SDS011;53663;42.676;23.238;2022-10-31T06:16:56;14.45;;;6.93;;
66751;SDS011;53663;42.676;23.238;2022-10-31T06:19:40;14.00;;;7.00;;
66751;SDS011;53663;42.676;23.238;2022-10-31T06:22:07;16.25;;;7.03;;
66751;SDS011;53663;42.676;23.238;2022-10-31T06:24:33;11.75;;;6.40;;
66751;SDS011;53663;42.676;23.238;2022-10-31T06:27:19;12.45;;;6.68;;
66751;SDS011;53663;42.676;23.238;2022-10-31T06:29:44;10.93;;;6.50;;
66751;SDS011;53663;42.676;23.238;2022-10-31T06:32:17;20.38;;;6.97;;
66751;SDS011;53663;42.676;23.238;2022-10-31T06:34:44;17.45;;;6.88;;
66751;SDS011;53663;42.676;23.238;2022-10-31T06:37:10;21.35;;;7.85;;
66751;SDS011;53663;42.676;23.238;2022-10-31T06:39:39;14.77;;;7.38;;
66751;SDS011;53663;42.676;23.238;2022-10-31T06:42:06;23.23;;;8.52;;
66751;SDS011;53663;42.676;23.238;2022-10-31T06:44:33;26.00;;;9.00;;
66751;SDS011;53663;42.676;23.238;2022-10-31T06:46:59;19.08;;;10.73;;
66751;SDS011;53663;42.676;23.238;2022-10-31T06:49:43;24.98;;;9.32;;
66751;SDS011;53663;42.676;23.238;2022-10-31T06:52:14;35.22;;;11.55;;
66751;SDS011;53663;42.676;23.238;2022-10-31T06:54:40;21.08;;;10.18;;
66751;SDS011;53663;42.676;23.238;2022-10-31T06:57:06;32.97;;;12.25;;
66751;SDS011;53663;42.676;23.238;2022-10-31T06:59:31;33.42;;;12.50;;
66751;SDS011;53663;42.676;23.238;2022-10-31T07:02:23;25.05;;;11.93;;
66751;SDS011;53663;42.676;23.238;2022-10-31T07:04:49;25.25;;;12.55;;
66751;SDS011;53663;42.676;23.238;2022-10-31T07:07:16;25.35;;;12.15;;
66751;SDS011;53663;42.676;23.238;2022-10-31T07:09:43;21.38;;;10.90;;
66751;SDS011;53663;42.676;23.238;2022-10-31T07:12:12;29.30;;;11.37;;
66751;SDS011;53663;42.676;23.238;2022-10-31T07:14:43;20.88;;;11.10;;
66751;SDS011;53663;42.676;23.238;2022-10-31T07:17:09;18.17;;;8.60;;
66751;SDS011;53663;42.676;23.238;2022-10-31T07:19:39;18.08;;;9.15;;
66751;SDS011;53663;42.676;23.238;2022-10-31T07:22:04;18.38;;;7.60;;
66751;SDS011;53663;42.676;23.238;2022-10-31T07:24:31;17.35;;;8.05;;
66751;SDS011;53663;42.676;23.238;2022-10-31T07:27:15;16.52;;;7.80;;
66751;SDS011;53663;42.676;23.238;2022-10-31T07:29:43;14.90;;;7.78;;
66751;SDS011;53663;42.676;23.238;2022-10-31T07:32:10;14.93;;;7.93;;
66751;SDS011;53663;42.676;23.238;2022-10-31T07:34:41;18.83;;;8.07;;
66751;SDS011;53663;42.676;23.238;2022-10-31T07:37:16;20.88;;;9.75;;
66751;SDS011;53663;42.676;23.238;2022-10-31T07:39:42;17.13;;;10.43;;
66751;SDS011;53663;42.676;23.238;2022-10-31T07:42:08;17.60;;;8.75;;
66751;SDS011;53663;42.676;23.238;2022-10-31T07:44:34;37.20;;;9.95;;
66751;SDS011;53663;42.676;23.238;2022-10-31T07:47:20;13.82;;;8.20;;
66751;SDS011;53663;42.676;23.238;2022-10-31T07:50:04;12.23;;;6.35;;
66751;SDS011;53663;42.676;23.238;2022-10-31T07:52:57;14.13;;;7.18;;
66751;SDS011;53663;42.676;23.238;2022-10-31T07:55:41;13.90;;;6.85;;
66751;SDS011;53663;42.676;23.238;2022-10-31T07:58:12;12.80;;;6.28;;
66751;SDS011;53663;42.676;23.238;2022-10-31T08:00:39;16.65;;;6.57;;
66751;SDS011;53663;42.676;23.238;2022-10-31T08:03:08;16.30;;;7.20;;
66751;SDS011;53663;42.676;23.238;2022-10-31T08:05:53;15.50;;;6.90;;
66751;SDS011;53663;42.676;23.238;2022-10-31T08:08:47;23.42;;;12.73;;
66751;SDS011;53663;42.676;23.238;2022-10-31T08:11:12;22.42;;;11.18;;
66751;SDS011;53663;42.676;23.238;2022-10-31T08:13:38;14.82;;;7.80;;
66751;SDS011;53663;42.676;23.238;2022-10-31T08:16:03;15.40;;;8.45;;
66751;SDS011;53663;42.676;23.238;2022-10-31T08:18:32;12.13;;;8.05;;
66751;SDS011;53663;42.676;23.238;2022-10-31T08:20:58;12.85;;;7.88;;
66751;SDS011;53663;42.676;23.238;2022-10-31T08:23:24;88.38;;;57.22;;
66751;SDS011;53663;42.676;23.238;2022-10-31T08:25:52;30.35;;;15.88;;
66751;SDS011;53663;42.676;23.238;2022-10-31T08:28:17;15.38;;;7.70;;
66751;SDS011;53663;42.676;23.238;2022-10-31T08:30:45;32.92;;;15.43;;
66751;SDS011;53663;42.676;23.238;2022-10-31T08:33:30;24.25;;;11.57;;
66751;SDS011;53663;42.676;23.238;2022-10-31T08:36:11;23.42;;;11.93;;
66751;SDS011;53663;42.676;23.238;2022-10-31T08:38:51;20.65;;;10.38;;
66751;SDS011;53663;42.676;23.238;2022-10-31T08:41:17;17.92;;;9.40;;
66751;SDS011;53663;42.676;23.238;2022-10-31T08:43:42;25.83;;;14.13;;
66751;SDS011;53663;42.676;23.238;2022-10-31T08:46:08;15.77;;;8.15;;
66751;SDS011;53663;42.676;23.238;2022-10-31T08:48:33;19.83;;;8.15;;
66751;SDS011;53663;42.676;23.238;2022-10-31T08:51:01;16.52;;;8.30;;
66751;SDS011;53663;42.676;23.238;2022-10-31T08:53:28;14.30;;;7.95;;
66751;SDS011;53663;42.676;23.238;2022-10-31T08:56:22;15.38;;;7.95;;
66751;SDS011;53663;42.676;23.238;2022-10-31T08:58:48;15.48;;;7.82;;
66751;SDS011;53663;42.676;23.238;2022-10-31T09:01:15;16.98;;;8.68;;
66751;SDS011;53663;42.676;23.238;2022-10-31T09:03:42;13.68;;;8.85;;
66751;SDS011;53663;42.676;23.238;2022-10-31T09:06:09;13.48;;;7.35;;
66751;SDS011;53663;42.676;23.238;2022-10-31T09:08:35;12.48;;;7.32;;
66751;SDS011;53663;42.676;23.238;2022-10-31T09:11:01;21.08;;;7.47;;
66751;SDS011;53663;42.676;23.238;2022-10-31T09:13:56;12.10;;;7.30;;
66751;SDS011;53663;42.676;23.238;2022-10-31T09:16:48;13.15;;;7.95;;
66751;SDS011;53663;42.676;23.238;2022-10-31T09:19:20;17.33;;;8.10;;
66751;SDS011;53663;42.676;23.238;2022-10-31T09:21:46;24.73;;;7.95;;
66751;SDS011;53663;42.676;23.238;2022-10-31T09:24:11;16.42;;;7.45;;
66751;SDS011;53663;42.676;23.238;2022-10-31T09:26:37;13.95;;;6.85;;
66751;SDS011;53663;42.676;23.238;2022-10-31T09:29:08;18.98;;;7.25;;
66751;SDS011;53663;42.676;23.238;2022-10-31T09:31:35;13.15;;;6.35;;
66751;SDS011;53663;42.676;23.238;2022-10-31T09:34:09;26.42;;;6.50;;
66751;SDS011;53663;42.676;23.238;2022-10-31T09:36:35;13.25;;;6.82;;
66751;SDS011;53663;42.676;23.238;2022-10-31T09:39:03;31.73;;;7.28;;
66751;SDS011;53663;42.676;23.238;2022-10-31T09:41:37;20.13;;;6.50;;
66751;SDS011;53663;42.676;23.238;2022-10-31T09:44:22;15.65;;;6.20;;
66751;SDS011;53663;42.676;23.238;2022-10-31T09:50:25;11.65;;;5.47;;
66751;SDS011;53663;42.676;23.238;2022-10-31T09:56:00;9.75;;;5.60;;
66751;SDS011;53663;42.676;23.238;2022-10-31T09:58:28;12.23;;;5.15;;
66751;SDS011;53663;42.676;23.238;2022-10-31T10:00:56;10.32;;;5.10;;
66751;SDS011;53663;42.676;23.238;2022-10-31T10:06:11;11.73;;;5.93;;
66751;SDS011;53663;42.676;23.238;2022-10-31T10:09:07;13.15;;;5.70;;
66751;SDS011;53663;42.676;23.238;2022-10-31T10:15:05;10.27;;;5.22;;
66751;SDS011;53663;42.676;23.238;2022-10-31T10:18:01;14.68;;;4.43;;
66751;SDS011;53663;42.676;23.238;2022-10-31T10:20:59;7.88;;;3.83;;
66751;SDS011;53663;42.676;23.238;2022-10-31T10:29:39;14.50;;;5.00;;
66751;SDS011;53663;42.676;23.238;2022-10-31T10:32:23;7.85;;;3.83;;
66751;SDS011;53663;42.676;23.238;2022-10-31T10:34:54;10.52;;;4.30;;
66751;SDS011;53663;42.676;23.238;2022-10-31T10:37:33;11.38;;;4.35;;
66751;SDS011;53663;42.676;23.238;2022-10-31T10:46:16;11.13;;;4.18;;
66751;SDS011;53663;42.676;23.238;2022-10-31T10:59:17;8.00;;;3.40;;
66751;SDS011;53663;42.676;23.238;2022-10-31T11:01:45;10.60;;;3.63;;
66751;SDS011;53663;42.676;23.238;2022-10-31T11:06:58;7.25;;;3.17;;
66751;SDS011;53663;42.676;23.238;2022-10-31T11:09:32;9.73;;;3.90;;
66751;SDS011;53663;42.676;23.238;2022-10-31T11:11:58;8.07;;;3.17;;
66751;SDS011;53663;42.676;23.238;2022-10-31T11:14:25;9.07;;;3.15;;
66751;SDS011;53663;42.676;23.238;2022-10-31T11:16:54;10.40;;;3.55;;
66751;SDS011;53663;42.676;23.238;2022-10-31T11:19:40;7.37;;;3.03;;
66751;SDS011;53663;42.676;23.238;2022-10-31T11:22:07;12.23;;;3.70;;
66751;SDS011;53663;42.676;23.238;2022-10-31T11:24:36;12.85;;;3.92;;
66751;SDS011;53663;42.676;23.238;2022-10-31T11:27:20;8.80;;;3.33;;
66751;SDS011;53663;42.676;23.238;2022-10-31T11:29:48;16.70;;;3.88;;
66751;SDS011;53663;42.676;23.238;2022-10-31T11:32:23;8.90;;;3.30;;
66751;SDS011;53663;42.676;23.238;2022-10-31T11:34:52;16.17;;;5.25;;
66751;SDS011;53663;42.676;23.238;2022-10-31T11:37:24;9.02;;;3.90;;
66751;SDS011;53663;42.676;23.238;2022-10-31T11:39:53;28.20;;;13.18;;
66751;SDS011;53663;42.676;23.238;2022-10-31T11:42:27;11.18;;;4.85;;
66751;SDS011;53663;42.676;23.238;2022-10-31T11:44:59;16.60;;;5.80;;
66751;SDS011;53663;42.676;23.238;2022-10-31T11:47:30;11.77;;;4.00;;
66751;SDS011;53663;42.676;23.238;2022-10-31T11:49:57;10.38;;;3.75;;
66751;SDS011;53663;42.676;23.238;2022-10-31T11:52:28;11.85;;;3.53;;
66751;SDS011;53663;42.676;23.238;2022-10-31T11:57:47;12.27;;;3.87;;
66751;SDS011;53663;42.676;23.238;2022-10-31T12:00:33;8.60;;;3.30;;
66751;SDS011;53663;42.676;23.238;2022-10-31T12:06:00;11.45;;;3.47;;
66751;SDS011;53663;42.676;23.238;2022-10-31T12:08:31;9.52;;;3.70;;
66751;SDS011;53663;42.676;23.238;2022-10-31T12:13:34;10.07;;;3.60;;
66751;SDS011;53663;42.676;23.238;2022-10-31T12:16:12;7.32;;;3.40;;
66751;SDS011;53663;42.676;23.238;2022-10-31T12:21:33;10.82;;;3.75;;
66751;SDS011;53663;42.676;23.238;2022-10-31T12:24:15;12.00;;;3.63;;
66751;SDS011;53663;42.676;23.238;2022-10-31T12:26:54;11.70;;;3.97;;
66751;SDS011;53663;42.676;23.238;2022-10-31T12:29:44;8.77;;;3.85;;
66751;SDS011;53663;42.676;23.238;2022-10-31T12:46:55;11.82;;;4.10;;
66751;SDS011;53663;42.676;23.238;2022-10-31T12:52:31;10.40;;;3.67;;
66751;SDS011;53663;42.676;23.238;2022-10-31T12:57:47;15.85;;;4.00;;
66751;SDS011;53663;42.676;23.238;2022-10-31T13:00:16;11.95;;;4.10;;
66751;SDS011;53663;42.676;23.238;2022-10-31T13:05:40;10.43;;;4.10;;
66751;SDS011;53663;42.676;23.238;2022-10-31T13:08:17;11.80;;;4.40;;
66751;SDS011;53663;42.676;23.238;2022-10-31T13:10:47;13.23;;;3.85;;
66751;SDS011;53663;42.676;23.238;2022-10-31T13:15:57;21.70;;;4.38;;
66751;SDS011;53663;42.676;23.238;2022-10-31T13:18:33;12.80;;;3.90;;
66751;SDS011;53663;42.676;23.238;2022-10-31T13:21:05;10.88;;;4.10;;
66751;SDS011;53663;42.676;23.238;2022-10-31T13:23:35;11.45;;;3.90;;
66751;SDS011;53663;42.676;23.238;2022-10-31T13:26:10;9.27;;;4.03;;
66751;SDS011;53663;42.676;23.238;2022-10-31T13:28:40;12.73;;;3.80;;
66751;SDS011;53663;42.676;23.238;2022-10-31T13:31:11;10.80;;;4.00;;
66751;SDS011;53663;42.676;23.238;2022-10-31T13:33:43;12.18;;;3.78;;
66751;SDS011;53663;42.676;23.238;2022-10-31T13:39:14;14.15;;;3.83;;
66751;SDS011;53663;42.676;23.238;2022-10-31T13:41:49;16.63;;;3.53;;
66751;SDS011;53663;42.676;23.238;2022-10-31T13:44:25;12.10;;;3.40;;
66751;SDS011;53663;42.676;23.238;2022-10-31T13:46:53;10.98;;;3.70;;
66751;SDS011;53663;42.676;23.238;2022-10-31T13:52:05;9.98;;;4.38;;
66751;SDS011;53663;42.676;23.238;2022-10-31T13:54:41;14.43;;;3.70;;
66751;SDS011;53663;42.676;23.238;2022-10-31T13:57:18;17.77;;;3.63;;
66751;SDS011;53663;42.676;23.238;2022-10-31T13:59:51;14.40;;;4.00;;
66751;SDS011;53663;42.676;23.238;2022-10-31T14:02:53;16.58;;;3.58;;
66751;SDS011;53663;42.676;23.238;2022-10-31T14:05:25;12.70;;;3.80;;
66751;SDS011;53663;42.676;23.238;2022-10-31T14:08:00;16.40;;;3.33;;
66751;SDS011;53663;42.676;23.238;2022-10-31T14:13:02;9.60;;;3.67;;
66751;SDS011;53663;42.676;23.238;2022-10-31T14:15:57;9.02;;;3.88;;
66751;SDS011;53663;42.676;23.238;2022-10-31T14:18:35;12.25;;;3.45;;
66751;SDS011;53663;42.676;23.238;2022-10-31T14:21:48;13.07;;;3.72;;
66751;SDS011;53663;42.676;23.238;2022-10-31T14:23:48;7.93;;;3.75;;
66751;SDS011;53663;42.676;23.238;2022-10-31T14:26:17;11.52;;;3.25;;
66751;SDS011;53663;42.676;23.238;2022-10-31T14:28:54;18.50;;;3.38;;
66751;SDS011;53663;42.676;23.238;2022-10-31T14:46:07;41.30;;;5.80;;
66751;SDS011;53663;42.676;23.238;2022-10-31T14:50:48;35.63;;;8.75;;
66751;SDS011;53663;42.676;23.238;2022-10-31T14:55:56;13.48;;;4.82;;
66751;SDS011;53663;42.676;23.238;2022-10-31T14:58:34;26.63;;;6.70;;
66751;SDS011;53663;42.676;23.238;2022-10-31T15:01:05;24.65;;;4.85;;
66751;SDS011;53663;42.676;23.238;2022-10-31T15:03:33;21.58;;;4.03;;
66751;SDS011;53663;42.676;23.238;2022-10-31T15:06:11;22.40;;;3.75;;
66751;SDS011;53663;42.676;23.238;2022-10-31T15:11:24;16.40;;;3.95;;
66751;SDS011;53663;42.676;23.238;2022-10-31T15:16:21;18.17;;;3.70;;
66751;SDS011;53663;42.676;23.238;2022-10-31T15:18:52;20.13;;;4.03;;
66751;SDS011;53663;42.676;23.238;2022-10-31T15:21:20;26.05;;;3.97;;
66751;SDS011;53663;42.676;23.238;2022-10-31T15:23:47;43.13;;;5.13;;
66751;SDS011;53663;42.676;23.238;2022-10-31T15:26:20;17.63;;;4.40;;
66751;SDS011;53663;42.676;23.238;2022-10-31T15:29:01;17.55;;;4.65;;
66751;SDS011;53663;42.676;23.238;2022-10-31T15:31:28;31.90;;;4.53;;
66751;SDS011;53663;42.676;23.238;2022-10-31T15:33:56;27.95;;;5.13;;
66751;SDS011;53663;42.676;23.238;2022-10-31T15:36:26;25.92;;;4.43;;
66751;SDS011;53663;42.676;23.238;2022-10-31T15:38:52;28.30;;;5.68;;
66751;SDS011;53663;42.676;23.238;2022-10-31T15:43:49;22.60;;;5.45;;
66751;SDS011;53663;42.676;23.238;2022-10-31T15:46:15;19.60;;;6.43;;
66751;SDS011;53663;42.676;23.238;2022-10-31T15:48:43;40.63;;;6.22;;
66751;SDS011;53663;42.676;23.238;2022-10-31T15:53:38;36.53;;;6.03;;
66751;SDS011;53663;42.676;23.238;2022-10-31T15:56:11;41.15;;;7.10;;
66751;SDS011;53663;42.676;23.238;2022-10-31T15:58:44;33.83;;;7.43;;
66751;SDS011;53663;42.676;23.238;2022-10-31T16:01:25;29.42;;;6.72;;
66751;SDS011;53663;42.676;23.238;2022-10-31T16:03:59;35.75;;;9.13;;
66751;SDS011;53663;42.676;23.238;2022-10-31T16:06:37;31.40;;;8.70;;
66751;SDS011;53663;42.676;23.238;2022-10-31T16:09:03;35.60;;;8.73;;
66751;SDS011;53663;42.676;23.238;2022-10-31T16:11:43;36.22;;;8.43;;
66751;SDS011;53663;42.676;23.238;2022-10-31T16:16:40;34.38;;;8.38;;
66751;SDS011;53663;42.676;23.238;2022-10-31T16:19:20;39.42;;;8.85;;
66751;SDS011;53663;42.676;23.238;2022-10-31T16:21:50;37.85;;;9.05;;
66751;SDS011;53663;42.676;23.238;2022-10-31T16:24:20;24.48;;;8.20;;
66751;SDS011;53663;42.676;23.238;2022-10-31T16:26:51;48.13;;;9.68;;
66751;SDS011;53663;42.676;23.238;2022-10-31T16:29:26;33.80;;;8.73;;
66751;SDS011;53663;42.676;23.238;2022-10-31T16:37:33;34.58;;;6.38;;
66751;SDS011;53663;42.676;23.238;2022-10-31T16:39:58;23.27;;;6.72;;
66751;SDS011;53663;42.676;23.238;2022-10-31T16:42:24;22.48;;;7.15;;
66751;SDS011;53663;42.676;23.238;2022-10-31T16:44:49;25.65;;;6.35;;
66751;SDS011;53663;42.676;23.238;2022-10-31T16:47:16;17.80;;;6.20;;
66751;SDS011;53663;42.676;23.238;2022-10-31T16:49:42;25.40;;;6.45;;
66751;SDS011;53663;42.676;23.238;2022-10-31T16:52:11;26.10;;;7.00;;
66751;SDS011;53663;42.676;23.238;2022-10-31T16:54:36;29.42;;;6.80;;
66751;SDS011;53663;42.676;23.238;2022-10-31T16:57:03;27.85;;;5.70;;
66751;SDS011;53663;42.676;23.238;2022-10-31T16:59:29;20.98;;;5.63;;
66751;SDS011;53663;42.676;23.238;2022-10-31T17:01:56;24.98;;;6.38;;
66751;SDS011;53663;42.676;23.238;2022-10-31T17:04:21;25.40;;;5.63;;
66751;SDS011;53663;42.676;23.238;2022-10-31T17:06:47;18.95;;;5.03;;
66751;SDS011;53663;42.676;23.238;2022-10-31T17:09:12;16.88;;;5.20;;
66751;SDS011;53663;42.676;23.238;2022-10-31T17:11:39;19.33;;;4.35;;
66751;SDS011;53663;42.676;23.238;2022-10-31T17:14:10;18.00;;;3.90;;
66751;SDS011;53663;42.676;23.238;2022-10-31T17:16:35;21.90;;;4.88;;
66751;SDS011;53663;42.676;23.238;2022-10-31T17:19:01;15.75;;;4.97;;
66751;SDS011;53663;42.676;23.238;2022-10-31T17:21:27;22.95;;;5.18;;
66751;SDS011;53663;42.676;23.238;2022-10-31T17:23:53;25.48;;;6.03;;
66751;SDS011;53663;42.676;23.238;2022-10-31T17:26:18;33.13;;;7.30;;
66751;SDS011;53663;42.676;23.238;2022-10-31T17:28:44;23.60;;;6.35;;